createdAt,value
2023-04-21T00:02:15.152Z,97237.00
2023-04-21T00:04:42.187Z,97240.00
2023-04-21T00:07:08.464Z,97237.00
2023-04-21T00:09:34.880Z,97226.00
2023-04-21T00:12:01.070Z,97225.00
2023-04-21T00:14:27.252Z,97223.00
2023-04-21T00:16:53.654Z,97214.00
2023-04-21T00:19:20.207Z,97234.00
2023-04-21T00:21:46.684Z,97233.00
2023-04-21T00:24:12.862Z,97233.00
2023-04-21T00:26:39.257Z,97226.00
2023-04-21T00:29:05.754Z,97230.00
2023-04-21T00:31:34.796Z,97219.00
2023-04-21T00:34:01.328Z,97235.00
2023-04-21T00:36:27.677Z,97232.00
2023-04-21T00:38:54.299Z,97231.00
2023-04-21T00:41:21.075Z,97238.00
2023-04-21T00:44:04.646Z,97225.00
2023-04-21T00:46:32.971Z,97209.00
2023-04-21T00:49:02.387Z,97197.00
2023-04-21T00:51:32.336Z,97199.00
2023-04-21T00:54:03.240Z,97190.00
2023-04-21T00:56:32.919Z,97203.00
2023-04-21T00:59:01.724Z,97203.00
2023-04-21T01:01:30.257Z,97221.00
2023-04-21T01:04:00.933Z,97224.00
2023-04-21T01:06:31.582Z,97233.00
2023-04-21T01:08:58.427Z,97211.00
2023-04-21T01:11:25.789Z,97224.00
2023-04-21T01:13:54.061Z,97223.00
2023-04-21T01:16:22.682Z,97224.00
2023-04-21T01:18:51.661Z,97224.00
2023-04-21T01:21:18.930Z,97241.00
2023-04-21T01:23:45.642Z,97224.00
2023-04-21T01:26:12.207Z,97220.00
2023-04-21T01:28:38.585Z,97233.00
2023-04-21T01:31:05.787Z,97220.00
2023-04-21T01:33:32.066Z,97214.00
2023-04-21T01:36:00.596Z,97211.00
2023-04-21T01:38:27.474Z,97220.00
2023-04-21T01:41:01.438Z,97212.00
2023-04-21T01:43:28.087Z,97203.00
2023-04-21T01:45:56.063Z,97218.00
2023-04-21T01:48:22.281Z,97226.00
2023-04-21T01:50:48.445Z,97232.00
2023-04-21T01:53:14.670Z,97232.00
2023-04-21T01:55:41.101Z,97223.00
2023-04-21T01:58:08.932Z,97211.00
2023-04-21T02:00:35.127Z,97219.00
2023-04-21T02:03:02.526Z,97200.00
2023-04-21T02:05:28.798Z,97208.00
2023-04-21T02:07:55.591Z,97215.00
2023-04-21T02:10:22.426Z,97206.00
2023-04-21T02:12:48.818Z,97222.00
2023-04-21T02:15:14.950Z,97218.00
2023-04-21T02:17:42.373Z,97220.00
2023-04-21T02:20:11.363Z,97217.00
2023-04-21T02:22:38.820Z,97204.00
2023-04-21T02:25:05.763Z,97207.00
2023-04-21T02:27:32.169Z,97215.00
2023-04-21T02:29:59.439Z,97223.00
2023-04-21T02:32:26.364Z,97218.00
2023-04-21T02:34:53.002Z,97213.00
2023-04-21T02:37:20.292Z,97219.00
2023-04-21T02:39:46.476Z,97205.00
2023-04-21T02:42:12.633Z,97231.00
2023-04-21T02:44:38.811Z,97216.00
2023-04-21T02:47:07.626Z,97209.00
2023-04-21T02:49:40.045Z,97215.00
2023-04-21T02:52:06.395Z,97227.00
2023-04-21T02:54:32.811Z,97214.00
2023-04-21T02:56:59.171Z,97220.00
2023-04-21T02:59:25.406Z,97219.00
2023-04-21T03:01:51.543Z,97214.00
2023-04-21T03:04:19.003Z,97230.00
2023-04-21T03:06:45.225Z,97228.00
2023-04-21T03:09:11.878Z,97232.00
2023-04-21T03:11:37.999Z,97221.00
2023-04-21T03:14:04.148Z,97228.00
2023-04-21T03:16:30.315Z,97224.00
2023-04-21T03:18:56.474Z,97236.00
2023-04-21T03:21:22.633Z,97220.00
2023-04-21T03:23:48.811Z,97235.00
2023-04-21T03:26:15.630Z,97234.00
2023-04-21T03:28:42.052Z,97229.00
2023-04-21T03:31:08.185Z,97242.00
2023-04-21T03:33:34.421Z,97224.00
2023-04-21T03:36:00.639Z,97214.00
2023-04-21T03:38:29.364Z,97228.00
2023-04-21T03:40:55.776Z,97227.00
2023-04-21T03:43:22.221Z,97222.00
2023-04-21T03:45:48.654Z,97218.00
2023-04-21T03:48:15.073Z,97236.00
2023-04-21T03:50:41.503Z,97226.00
2023-04-21T03:53:07.896Z,97231.00
2023-04-21T03:55:34.067Z,97225.00
2023-04-21T03:58:00.221Z,97223.00
2023-04-21T04:00:26.449Z,97235.00
2023-04-21T04:02:52.701Z,97225.00
2023-04-21T04:05:19.078Z,97225.00
2023-04-21T04:07:45.313Z,97225.00
2023-04-21T04:10:11.522Z,97231.00
2023-04-21T04:12:37.693Z,97221.00
2023-04-21T04:15:04.338Z,97222.00
2023-04-21T04:17:30.572Z,97211.00
2023-04-21T04:19:56.978Z,97217.00
2023-04-21T04:22:23.168Z,97239.00
2023-04-21T04:24:49.313Z,97224.00
2023-04-21T04:27:15.939Z,97225.00
2023-04-21T04:29:43.233Z,97228.00
2023-04-21T04:32:10.481Z,97224.00
2023-04-21T04:34:36.958Z,97216.00
2023-04-21T04:37:03.677Z,97222.00
2023-04-21T04:39:31.467Z,97220.00
2023-04-21T04:41:57.605Z,97225.00
2023-04-21T04:44:25.078Z,97224.00
2023-04-21T04:46:51.892Z,97217.00
2023-04-21T04:49:18.087Z,97224.00
2023-04-21T04:51:44.446Z,97227.00
2023-04-21T04:54:10.691Z,97219.00
2023-04-21T04:56:36.988Z,97220.00
2023-04-21T04:59:03.197Z,97223.00
2023-04-21T05:01:30.376Z,97230.00
2023-04-21T05:03:57.162Z,97239.00
2023-04-21T05:06:23.788Z,97226.00
2023-04-21T05:08:49.948Z,97228.00
2023-04-21T05:11:16.092Z,97224.00
2023-04-21T05:13:42.236Z,97230.00
2023-04-21T05:16:09.572Z,97244.00
2023-04-21T05:18:35.996Z,97239.00
2023-04-21T05:21:02.196Z,97242.00
2023-04-21T05:23:28.580Z,97254.00
2023-04-21T05:25:55.215Z,97245.00
2023-04-21T05:28:22.376Z,97245.00
2023-04-21T05:30:48.670Z,97242.00
2023-04-21T05:33:19.065Z,97240.00
2023-04-21T05:35:45.273Z,97242.00
2023-04-21T05:38:11.500Z,97236.00
2023-04-21T05:40:37.669Z,97254.00
2023-04-21T05:43:03.828Z,97246.00
2023-04-21T05:45:30.195Z,97241.00
2023-04-21T05:47:56.463Z,97238.00
2023-04-21T05:50:24.759Z,97233.00
2023-04-21T05:52:50.875Z,97240.00
2023-04-21T05:55:17.021Z,97236.00
2023-04-21T05:57:43.524Z,97231.00
2023-04-21T06:00:10.620Z,97230.00
2023-04-21T06:02:36.964Z,97239.00
2023-04-21T06:05:03.751Z,97229.00
2023-04-21T06:07:30.161Z,97217.00
2023-04-21T06:09:57.140Z,97226.00
2023-04-21T06:12:23.372Z,97225.00
2023-04-21T06:14:49.926Z,97232.00
2023-04-21T06:17:17.318Z,97220.00
2023-04-21T06:19:43.510Z,97227.00
2023-04-21T06:22:09.757Z,97227.00
2023-04-21T06:24:36.185Z,97236.00
2023-04-21T06:27:02.378Z,97217.00
2023-04-21T06:29:28.588Z,97224.00
2023-04-21T06:31:54.762Z,97228.00
2023-04-21T06:34:21.133Z,97217.00
2023-04-21T06:36:47.654Z,97224.00
2023-04-21T06:39:13.812Z,97208.00
2023-04-21T06:41:40.056Z,97217.00
2023-04-21T06:44:06.227Z,97222.00
2023-04-21T06:46:32.683Z,97210.00
2023-04-21T06:48:58.838Z,97204.00
2023-04-21T06:51:25.031Z,97210.00
2023-04-21T06:53:51.231Z,97214.00
2023-04-21T06:56:17.423Z,97203.00
2023-04-21T06:58:43.562Z,97222.00
2023-04-21T07:01:10.037Z,97203.00
2023-04-21T07:03:36.517Z,97218.00
2023-04-21T07:06:03.141Z,97219.00
2023-04-21T07:08:29.391Z,97213.00
2023-04-21T07:10:55.586Z,97219.00
2023-04-21T07:13:21.827Z,97222.00
2023-04-21T07:15:48.066Z,97198.00
2023-04-21T07:18:14.551Z,97215.00
2023-04-21T07:20:41.135Z,97197.00
2023-04-21T07:23:07.514Z,97214.00
2023-04-21T07:25:33.668Z,97211.00
2023-04-21T07:27:59.822Z,97215.00
2023-04-21T07:30:26.069Z,97216.00
2023-04-21T07:32:52.405Z,97208.00
2023-04-21T07:35:18.551Z,97211.00
2023-04-21T07:37:44.917Z,97206.00
2023-04-21T07:40:11.617Z,97216.00
2023-04-21T07:42:38.482Z,97205.00
2023-04-21T07:45:05.339Z,97202.00
2023-04-21T07:47:32.835Z,97194.00
2023-04-21T07:49:59.079Z,97199.00
2023-04-21T07:52:25.466Z,97201.00
2023-04-21T07:54:51.911Z,97217.00
2023-04-21T07:57:18.090Z,97217.00
2023-04-21T07:59:44.601Z,97216.00
2023-04-21T08:02:10.788Z,97216.00
2023-04-21T08:04:37.099Z,97214.00
2023-04-21T08:07:03.842Z,97223.00
2023-04-21T08:09:30.215Z,97224.00
2023-04-21T08:11:57.433Z,97225.00
2023-04-21T08:14:24.042Z,97226.00
2023-04-21T08:16:50.409Z,97216.00
2023-04-21T08:19:16.974Z,97226.00
2023-04-21T08:21:43.173Z,97230.00
2023-04-21T08:24:09.348Z,97232.00
2023-04-21T08:26:35.783Z,97226.00
2023-04-21T08:29:04.345Z,97229.00
2023-04-21T08:31:30.956Z,97223.00
2023-04-21T08:34:01.870Z,97234.00
2023-04-21T08:36:29.728Z,97220.00
2023-04-21T08:38:57.047Z,97225.00
2023-04-21T08:41:24.955Z,97247.00
2023-04-21T08:43:51.294Z,97224.00
2023-04-21T08:46:19.029Z,97225.00
2023-04-21T08:48:47.059Z,97227.00
2023-04-21T08:51:23.572Z,97234.00
2023-04-21T08:53:50.100Z,97232.00
2023-04-21T08:56:16.264Z,97222.00
2023-04-21T08:58:42.486Z,97235.00
2023-04-21T09:01:08.832Z,97218.00
2023-04-21T09:03:35.347Z,97229.00
2023-04-21T09:06:08.866Z,97237.00
2023-04-21T09:08:43.483Z,97224.00
2023-04-21T09:11:14.140Z,97233.00
2023-04-21T09:13:42.969Z,97226.00
2023-04-21T09:16:21.732Z,97227.00
2023-04-21T09:18:50.663Z,97240.00
2023-04-21T09:21:19.554Z,97241.00
2023-04-21T09:23:51.791Z,97231.00
2023-04-21T09:26:22.184Z,97229.00
2023-04-21T09:28:50.449Z,97227.00
2023-04-21T09:31:29.706Z,97227.00
2023-04-21T09:34:00.025Z,97217.00
2023-04-21T09:36:31.538Z,97225.00
2023-04-21T09:39:29.061Z,97222.00
2023-04-21T09:41:50.283Z,97223.00
2023-04-21T09:44:17.104Z,97227.00
2023-04-21T09:46:52.067Z,97223.00
2023-04-21T09:49:22.296Z,97232.00
2023-04-21T09:52:17.043Z,97227.00
2023-04-21T09:54:44.657Z,97224.00
2023-04-21T09:57:13.868Z,97227.00
2023-04-21T09:59:47.127Z,97234.00
2023-04-21T10:02:14.075Z,97234.00
2023-04-21T10:04:43.033Z,97228.00
2023-04-21T10:07:10.858Z,97241.00
2023-04-21T10:09:48.403Z,97223.00
2023-04-21T10:12:15.504Z,97226.00
2023-04-21T10:14:41.959Z,97242.00
2023-04-21T10:17:10.259Z,97223.00
2023-04-21T10:19:48.104Z,97224.00
2023-04-21T10:22:14.471Z,97222.00
2023-04-21T10:24:42.215Z,97213.00
2023-04-21T10:27:29.949Z,97206.00
2023-04-21T10:29:58.288Z,97219.00
2023-04-21T10:32:42.328Z,97211.00
2023-04-21T10:35:13.194Z,97214.00
2023-04-21T10:37:42.135Z,97211.00
2023-04-21T10:40:44.172Z,97212.00
2023-04-21T10:43:49.282Z,97213.00
2023-04-21T10:46:53.033Z,97203.00
2023-04-21T10:49:29.996Z,97192.00
2023-04-21T10:51:59.400Z,97206.00
2023-04-21T10:54:27.240Z,97187.00
2023-04-21T10:56:56.830Z,97191.00
2023-04-21T10:59:25.436Z,97194.00
2023-04-21T11:01:52.003Z,97185.00
2023-04-21T11:04:21.576Z,97179.00
2023-04-21T11:07:09.688Z,97177.00
2023-04-21T11:09:37.637Z,97169.00
2023-04-21T11:12:13.551Z,97171.00
2023-04-21T11:14:43.200Z,97176.00
2023-04-21T11:17:16.626Z,97172.00
2023-04-21T11:20:03.219Z,97181.00
2023-04-21T11:22:29.569Z,97185.00
2023-04-21T11:24:57.865Z,97183.00
2023-04-21T11:27:28.396Z,97172.00
2023-04-21T11:29:54.725Z,97166.00
2023-04-21T11:32:21.124Z,97175.00
2023-04-21T11:34:47.566Z,97176.00
2023-04-21T11:37:23.217Z,97175.00
2023-04-21T11:39:49.489Z,97164.00
2023-04-21T11:42:24.506Z,97157.00
2023-04-21T11:44:54.280Z,97153.00
2023-04-21T11:47:27.134Z,97145.00
2023-04-21T11:49:59.964Z,97156.00
2023-04-21T11:52:37.484Z,97149.00
2023-04-21T11:55:20.053Z,97153.00
2023-04-21T11:57:46.340Z,97140.00
2023-04-21T12:00:14.691Z,97139.00
2023-04-21T12:02:42.600Z,97155.00
2023-04-21T12:05:12.289Z,97134.00
2023-04-21T12:07:43.673Z,97139.00
2023-04-21T12:10:17.297Z,97131.00
2023-04-21T12:12:45.520Z,97129.00
2023-04-21T12:15:18.750Z,97128.00
2023-04-21T12:17:47.679Z,97119.00
2023-04-21T12:20:22.830Z,97117.00
2023-04-21T12:22:49.582Z,97127.00
2023-04-21T12:25:16.052Z,97110.00
2023-04-21T12:27:51.726Z,97116.00
2023-04-21T12:30:19.092Z,97108.00
2023-04-21T12:32:46.738Z,97116.00
2023-04-21T12:35:13.464Z,97105.00
2023-04-21T12:37:39.735Z,97106.00
2023-04-21T12:40:07.380Z,97098.00
2023-04-21T12:42:36.720Z,97097.00
2023-04-21T12:45:04.874Z,97096.00
2023-04-21T12:47:31.075Z,97097.00
2023-04-21T12:49:57.331Z,97095.00
2023-04-21T12:52:23.553Z,97094.00
2023-04-21T12:54:50.015Z,97081.00
2023-04-21T12:57:16.268Z,97095.00
2023-04-21T12:59:44.111Z,97090.00
2023-04-21T13:02:12.457Z,97084.00
2023-04-21T13:04:41.270Z,97091.00
2023-04-21T13:07:08.263Z,97091.00
2023-04-21T13:09:34.812Z,97088.00
2023-04-21T13:12:01.254Z,97085.00
2023-04-21T13:14:27.445Z,97076.00
2023-04-21T13:16:53.917Z,97085.00
2023-04-21T13:19:20.343Z,97054.00
2023-04-21T13:21:47.703Z,97055.00
2023-04-21T13:24:14.748Z,97065.00
2023-04-21T13:26:41.416Z,97050.00
2023-04-21T13:29:08.225Z,97046.00
2023-04-21T13:31:34.935Z,97052.00
2023-04-21T13:34:01.763Z,97038.00
2023-04-21T13:36:28.060Z,97048.00
2023-04-21T13:38:55.458Z,97057.00
2023-04-21T13:41:21.854Z,97042.00
2023-04-21T13:43:48.202Z,97040.00
2023-04-21T13:46:14.485Z,97032.00
2023-04-21T13:48:41.029Z,97037.00
2023-04-21T13:51:07.473Z,97028.00
2023-04-21T13:53:33.685Z,97040.00
2023-04-21T13:55:59.965Z,97016.00
2023-04-21T13:58:26.293Z,97027.00
2023-04-21T14:00:53.034Z,97023.00
2023-04-21T14:03:19.479Z,97019.00
2023-04-21T14:05:45.937Z,97004.00
2023-04-21T14:08:12.600Z,97004.00
2023-04-21T14:10:38.759Z,97016.00
2023-04-21T14:13:05.378Z,96983.00
2023-04-21T14:15:32.290Z,96992.00
2023-04-21T14:17:59.916Z,96980.00
2023-04-21T14:20:27.007Z,96978.00
2023-04-21T14:22:53.277Z,96988.00
2023-04-21T14:25:19.531Z,96971.00
2023-04-21T14:27:45.731Z,96973.00
2023-04-21T14:30:13.887Z,96977.00
2023-04-21T14:32:44.602Z,96964.00
2023-04-21T14:35:12.076Z,96967.00
2023-04-21T14:37:39.471Z,96974.00
2023-04-21T14:40:09.710Z,96968.00
2023-04-21T14:42:36.167Z,96967.00
2023-04-21T14:45:02.654Z,96948.00
2023-04-21T14:47:29.239Z,96947.00
2023-04-21T14:49:55.647Z,96946.00
2023-04-21T14:52:26.090Z,96939.00
2023-04-21T14:54:52.521Z,96940.00
2023-04-21T14:57:21.456Z,96936.00
2023-04-21T14:59:52.477Z,96943.00
2023-04-21T15:02:20.261Z,96939.00
2023-04-21T15:04:47.098Z,96940.00
2023-04-21T15:07:13.651Z,96922.00
2023-04-21T15:09:42.504Z,96922.00
2023-04-21T15:12:09.342Z,96915.00
2023-04-21T15:14:35.551Z,96914.00
2023-04-21T15:17:01.971Z,96924.00
2023-04-21T15:19:28.484Z,96918.00
2023-04-21T15:21:55.211Z,96912.00
2023-04-21T15:24:21.749Z,96913.00
2023-04-21T15:26:47.909Z,96908.00
2023-04-21T15:29:14.195Z,96921.00
2023-04-21T15:31:40.638Z,96906.00
2023-04-21T15:34:09.857Z,96891.00
2023-04-21T15:36:36.249Z,96893.00
2023-04-21T15:39:03.220Z,96899.00
2023-04-21T15:41:30.768Z,96902.00
2023-04-21T15:44:00.446Z,96893.00
2023-04-21T15:46:26.788Z,96903.00
2023-04-21T15:48:53.138Z,96907.00
2023-04-21T15:51:19.591Z,96904.00
2023-04-21T15:53:48.898Z,96901.00
2023-04-21T15:56:15.915Z,96898.00
2023-04-21T15:58:42.360Z,96900.00
2023-04-21T16:01:08.922Z,96885.00
2023-04-21T16:03:36.411Z,96881.00
2023-04-21T16:06:03.547Z,96890.00
2023-04-21T16:08:32.256Z,96877.00
2023-04-21T16:10:59.644Z,96871.00
2023-04-21T16:13:26.057Z,96874.00
2023-04-21T16:15:52.403Z,96867.00
2023-04-21T16:18:19.011Z,96865.00
2023-04-21T16:20:48.964Z,96846.00
2023-04-21T16:23:15.442Z,96857.00
2023-04-21T16:25:42.338Z,96867.00
2023-04-21T16:28:09.021Z,96850.00
2023-04-21T16:30:35.740Z,96859.00
2023-04-21T16:33:02.304Z,96858.00
2023-04-21T16:35:28.668Z,96845.00
2023-04-21T16:37:55.300Z,96861.00
2023-04-21T16:40:21.706Z,96848.00
2023-04-21T16:42:48.483Z,96857.00
2023-04-21T16:45:14.928Z,96844.00
2023-04-21T16:47:42.564Z,96851.00
2023-04-21T16:50:09.976Z,96831.00
2023-04-21T16:52:36.535Z,96851.00
2023-04-21T16:55:02.857Z,96842.00
2023-04-21T16:57:30.425Z,96838.00
2023-04-21T16:59:58.295Z,96822.00
2023-04-21T17:02:25.294Z,96840.00
2023-04-21T17:04:55.015Z,96835.00
2023-04-21T17:07:21.228Z,96832.00
2023-04-21T17:09:47.428Z,96823.00
2023-04-21T17:12:13.838Z,96818.00
2023-04-21T17:14:40.601Z,96821.00
2023-04-21T17:17:07.314Z,96822.00
2023-04-21T17:19:33.798Z,96826.00
2023-04-21T17:21:59.982Z,96820.00
2023-04-21T17:24:27.231Z,96822.00
2023-04-21T17:26:56.447Z,96816.00
2023-04-21T17:29:22.703Z,96832.00
2023-04-21T17:31:48.999Z,96821.00
2023-04-21T17:34:15.544Z,96820.00
2023-04-21T17:36:44.000Z,96829.00
2023-04-21T17:39:10.392Z,96821.00
2023-04-21T17:41:36.607Z,96823.00
2023-04-21T17:44:02.904Z,96829.00
2023-04-21T17:46:29.814Z,96829.00
2023-04-21T17:48:56.556Z,96822.00
2023-04-21T17:51:24.304Z,96829.00
2023-04-21T17:53:50.748Z,96822.00
2023-04-21T17:56:19.944Z,96827.00
2023-04-21T17:58:46.405Z,96833.00
2023-04-21T18:01:12.589Z,96837.00
2023-04-21T18:03:43.914Z,96827.00
2023-04-21T18:06:10.920Z,96834.00
2023-04-21T18:08:37.964Z,96824.00
2023-04-21T18:11:05.446Z,96832.00
2023-04-21T18:13:31.752Z,96836.00
2023-04-21T18:15:58.457Z,96838.00
2023-04-21T18:18:25.866Z,96818.00
2023-04-21T18:20:52.162Z,96823.00
2023-04-21T18:23:18.654Z,96824.00
2023-04-21T18:25:46.226Z,96832.00
2023-04-21T18:28:12.867Z,96833.00
2023-04-21T18:30:39.702Z,96824.00
2023-04-21T18:33:06.207Z,96828.00
2023-04-21T18:35:33.246Z,96846.00
2023-04-21T18:38:00.169Z,96833.00
2023-04-21T18:40:26.699Z,96836.00
2023-04-21T18:42:52.969Z,96830.00
2023-04-21T18:45:19.279Z,96836.00
2023-04-21T18:47:46.393Z,96830.00
2023-04-21T18:50:13.161Z,96826.00
2023-04-21T18:52:42.678Z,96825.00
2023-04-21T18:55:09.198Z,96840.00
2023-04-21T18:57:35.663Z,96838.00
2023-04-21T19:00:01.998Z,96841.00
2023-04-21T19:02:29.216Z,96832.00
2023-04-21T19:04:55.794Z,96835.00
2023-04-21T19:07:22.036Z,96833.00
2023-04-21T19:09:48.229Z,96851.00
2023-04-21T19:12:15.739Z,96862.00
2023-04-21T19:14:47.213Z,96840.00
2023-04-21T19:17:14.865Z,96853.00
2023-04-21T19:19:41.665Z,96855.00
2023-04-21T19:22:07.934Z,96867.00
2023-04-21T19:24:34.688Z,96885.00
2023-04-21T19:27:01.858Z,96862.00
2023-04-21T19:29:28.161Z,96939.00
2023-04-21T19:31:54.615Z,96959.00
2023-04-21T19:34:21.550Z,96962.00
2023-04-21T19:36:51.068Z,96964.00
2023-04-21T19:39:17.285Z,96962.00
2023-04-21T19:41:43.538Z,96954.00
2023-04-21T19:44:10.065Z,96953.00
2023-04-21T19:46:36.463Z,96962.00
2023-04-21T19:49:02.741Z,96945.00
2023-04-21T19:51:28.908Z,96961.00
2023-04-21T19:54:10.112Z,96934.00
2023-04-21T19:56:37.485Z,96916.00
2023-04-21T19:59:04.880Z,96878.00
2023-04-21T20:01:32.889Z,96872.00
2023-04-21T20:03:59.867Z,96856.00
2023-04-21T20:06:27.977Z,96865.00
2023-04-21T20:08:55.203Z,96854.00
2023-04-21T20:11:22.377Z,96864.00
2023-04-21T20:13:48.892Z,96842.00
2023-04-21T20:16:16.541Z,96845.00
2023-04-21T20:18:43.007Z,96839.00
2023-04-21T20:21:09.220Z,96848.00
2023-04-21T20:23:35.423Z,96839.00
2023-04-21T20:26:01.820Z,96847.00
2023-04-21T20:28:28.041Z,96841.00
2023-04-21T20:30:56.327Z,96842.00
2023-04-21T20:33:22.671Z,96853.00
2023-04-21T20:35:49.042Z,96842.00
2023-04-21T20:38:15.783Z,96840.00
2023-04-21T20:40:42.330Z,96841.00
2023-04-21T20:43:09.424Z,96868.00
2023-04-21T20:45:36.014Z,96871.00
2023-04-21T20:48:03.273Z,96874.00
2023-04-21T20:50:29.601Z,96867.00
2023-04-21T20:52:56.007Z,96871.00
2023-04-21T20:55:22.398Z,96873.00
2023-04-21T20:57:48.828Z,96863.00
2023-04-21T21:00:15.212Z,96863.00
2023-04-21T21:02:41.628Z,96853.00
2023-04-21T21:05:08.157Z,96857.00
2023-04-21T21:07:34.498Z,96855.00
2023-04-21T21:10:00.902Z,96859.00
2023-04-21T21:12:27.103Z,96856.00
2023-04-21T21:14:53.305Z,96851.00
2023-04-21T21:17:19.875Z,96849.00
2023-04-21T21:19:46.032Z,96862.00
2023-04-21T21:22:12.473Z,96857.00
2023-04-21T21:24:38.636Z,96866.00
2023-04-21T21:27:04.872Z,96856.00
2023-04-21T21:29:31.138Z,96859.00
2023-04-21T21:31:57.641Z,96861.00
2023-04-21T21:34:24.090Z,96857.00
2023-04-21T21:36:50.278Z,96858.00
2023-04-21T21:39:16.709Z,96858.00
2023-04-21T21:41:42.975Z,96857.00
2023-04-21T21:44:09.909Z,96857.00
2023-04-21T21:46:36.171Z,96855.00
2023-04-21T21:49:02.433Z,96845.00
2023-04-21T21:51:28.826Z,96848.00
2023-04-21T21:53:55.247Z,96863.00
2023-04-21T21:56:23.462Z,96863.00
2023-04-21T21:58:50.052Z,96846.00
2023-04-21T22:01:17.373Z,96860.00
2023-04-21T22:03:44.539Z,96857.00
2023-04-21T22:06:11.536Z,96850.00
2023-04-21T22:08:37.707Z,96851.00
2023-04-21T22:11:05.140Z,96854.00
2023-04-21T22:13:31.712Z,96849.00
2023-04-21T22:15:58.212Z,96857.00
2023-04-21T22:18:24.541Z,96859.00
2023-04-21T22:20:50.992Z,96841.00
2023-04-21T22:23:19.007Z,96855.00
2023-04-21T22:25:45.410Z,96853.00
2023-04-21T22:28:12.474Z,96852.00
2023-04-21T22:30:38.703Z,96855.00
2023-04-21T22:33:05.236Z,96836.00
2023-04-21T22:35:31.708Z,96826.00
2023-04-21T22:37:58.078Z,96846.00
2023-04-21T22:40:24.225Z,96842.00
2023-04-21T22:42:50.421Z,96846.00
2023-04-21T22:45:16.712Z,96839.00
2023-04-21T22:47:43.045Z,96860.00
2023-04-21T22:50:09.997Z,96843.00
2023-04-21T22:52:36.444Z,96845.00
2023-04-21T22:55:04.481Z,96850.00
2023-04-21T22:57:31.765Z,96847.00
2023-04-21T22:59:58.434Z,96862.00
2023-04-21T23:02:24.772Z,96854.00
2023-04-21T23:04:51.289Z,96863.00
2023-04-21T23:07:17.736Z,96865.00
2023-04-21T23:09:44.154Z,96856.00
2023-04-21T23:12:10.390Z,96870.00
2023-04-21T23:14:36.681Z,96875.00
2023-04-21T23:17:03.954Z,96886.00
2023-04-21T23:19:30.255Z,96884.00
2023-04-21T23:21:56.405Z,96871.00
2023-04-21T23:24:22.888Z,96867.00
2023-04-21T23:26:49.047Z,96870.00
2023-04-21T23:29:15.578Z,96864.00
2023-04-21T23:31:42.244Z,96868.00
2023-04-21T23:34:09.270Z,96865.00
2023-04-21T23:36:35.817Z,96876.00
2023-04-21T23:39:02.155Z,96873.00
2023-04-21T23:41:28.771Z,96871.00
2023-04-21T23:43:55.081Z,96856.00
2023-04-21T23:46:21.273Z,96850.00
2023-04-21T23:48:47.554Z,96856.00
2023-04-21T23:51:14.922Z,96856.00
2023-04-21T23:53:41.094Z,96856.00
2023-04-21T23:56:07.643Z,96851.00
2023-04-21T23:58:34.037Z,96861.00
